レシフェ の空港の天気 - METARとTAF

レシフェ・グアララペス国際空港 ( SBRF / REC ) - ブラジル ペルナンブーコ州レシフェ
飛行場実況気象(Metar)
観測時間10/21 13:00 BRT (10/21 16:00 UTC)
風向・風速南南東 9m/s
視程8000m
天気現象周辺でしゅう雨
全天の8割程度の雲 雲底高度 760m
全天の8割程度の雲 雲底高度 1520m
気温28℃
湿度70%
気圧1014hPa
METARSBRF 211600Z 15017KT 8000 VCSH BKN025 BKN050 28/22 Q1014
過去の天気等 Google飛行場航空写真 Wunderground天気予報

過去48時間のMETAR

飛行場予報(TAF)
発表時間: 10/21 06:00 BRT (10/21 09:00 UTC)
予報対象時間: 21日9時 BRT ~ 22日9時 BRT
風向・風速南東 5m/s
視程10km以上
全天の4割程度の雲 雲底高度 910m
TAF SBRF 210900Z 2112/2212 14010KT 9999 SCT030 TX29/2116Z TN25/2207Z RMK PHD